sensor_id;sensor_type;location;lat;lon;timestamp;P1;durP1;ratioP1;P2;durP2;ratioP2
31966;SDS011;18496;52.042;6.812;2023-08-21T00:01:44;4.20;;;2.10;;
31966;SDS011;18496;52.042;6.812;2023-08-21T00:03:48;5.63;;;2.08;;
31966;SDS011;18496;52.042;6.812;2023-08-21T00:05:52;9.40;;;2.83;;
31966;SDS011;18496;52.042;6.812;2023-08-21T00:07:56;4.72;;;2.17;;
31966;SDS011;18496;52.042;6.812;2023-08-21T00:10:00;5.07;;;2.00;;
31966;SDS011;18496;52.042;6.812;2023-08-21T00:12:03;7.07;;;2.40;;
31966;SDS011;18496;52.042;6.812;2023-08-21T00:14:08;11.18;;;2.38;;
31966;SDS011;18496;52.042;6.812;2023-08-21T00:16:11;6.30;;;2.03;;
31966;SDS011;18496;52.042;6.812;2023-08-21T00:18:15;7.15;;;2.30;;
31966;SDS011;18496;52.042;6.812;2023-08-21T00:20:19;3.72;;;2.15;;
31966;SDS011;18496;52.042;6.812;2023-08-21T00:22:23;6.57;;;2.50;;
31966;SDS011;18496;52.042;6.812;2023-08-21T00:24:27;7.03;;;2.25;;
31966;SDS011;18496;52.042;6.812;2023-08-21T00:26:31;5.30;;;2.00;;
31966;SDS011;18496;52.042;6.812;2023-08-21T00:28:34;7.28;;;2.20;;
31966;SDS011;18496;52.042;6.812;2023-08-21T00:30:38;6.97;;;2.03;;
31966;SDS011;18496;52.042;6.812;2023-08-21T00:32:43;7.13;;;2.38;;
31966;SDS011;18496;52.042;6.812;2023-08-21T00:34:47;7.18;;;2.08;;
31966;SDS011;18496;52.042;6.812;2023-08-21T00:36:50;7.93;;;2.28;;
31966;SDS011;18496;52.042;6.812;2023-08-21T00:38:54;6.47;;;2.17;;
31966;SDS011;18496;52.042;6.812;2023-08-21T00:40:58;3.90;;;1.67;;
31966;SDS011;18496;52.042;6.812;2023-08-21T00:43:02;4.43;;;1.90;;
31966;SDS011;18496;52.042;6.812;2023-08-21T00:45:07;6.72;;;1.85;;
31966;SDS011;18496;52.042;6.812;2023-08-21T00:47:11;7.47;;;2.42;;
31966;SDS011;18496;52.042;6.812;2023-08-21T00:49:15;7.60;;;2.33;;
31966;SDS011;18496;52.042;6.812;2023-08-21T00:51:19;9.20;;;2.70;;
31966;SDS011;18496;52.042;6.812;2023-08-21T00:53:23;6.38;;;2.50;;
31966;SDS011;18496;52.042;6.812;2023-08-21T00:55:29;7.88;;;2.40;;
31966;SDS011;18496;52.042;6.812;2023-08-21T00:57:34;4.03;;;1.92;;
31966;SDS011;18496;52.042;6.812;2023-08-21T00:59:39;8.45;;;2.42;;
31966;SDS011;18496;52.042;6.812;2023-08-21T01:01:44;8.20;;;2.20;;
31966;SDS011;18496;52.042;6.812;2023-08-21T01:03:48;4.90;;;2.33;;
31966;SDS011;18496;52.042;6.812;2023-08-21T01:05:53;7.78;;;2.10;;
31966;SDS011;18496;52.042;6.812;2023-08-21T01:08:02;8.10;;;2.35;;
31966;SDS011;18496;52.042;6.812;2023-08-21T01:10:14;5.63;;;2.40;;
31966;SDS011;18496;52.042;6.812;2023-08-21T01:14:40;5.90;;;2.38;;
31966;SDS011;18496;52.042;6.812;2023-08-21T01:16:52;7.78;;;2.50;;
31966;SDS011;18496;52.042;6.812;2023-08-21T01:19:00;4.70;;;1.85;;
31966;SDS011;18496;52.042;6.812;2023-08-21T01:21:06;6.47;;;2.00;;
31966;SDS011;18496;52.042;6.812;2023-08-21T01:23:26;4.43;;;2.05;;
31966;SDS011;18496;52.042;6.812;2023-08-21T01:25:39;6.45;;;2.33;;
31966;SDS011;18496;52.042;6.812;2023-08-21T01:27:44;5.82;;;2.20;;
31966;SDS011;18496;52.042;6.812;2023-08-21T01:29:51;3.55;;;1.88;;
31966;SDS011;18496;52.042;6.812;2023-08-21T01:34:23;4.28;;;2.33;;
31966;SDS011;18496;52.042;6.812;2023-08-21T01:36:29;8.07;;;2.47;;
31966;SDS011;18496;52.042;6.812;2023-08-21T01:38:34;5.72;;;2.20;;
31966;SDS011;18496;52.042;6.812;2023-08-21T01:40:39;5.10;;;2.30;;
31966;SDS011;18496;52.042;6.812;2023-08-21T01:42:43;6.88;;;2.30;;
31966;SDS011;18496;52.042;6.812;2023-08-21T01:44:47;3.88;;;2.45;;
31966;SDS011;18496;52.042;6.812;2023-08-21T01:46:51;9.25;;;2.58;;
31966;SDS011;18496;52.042;6.812;2023-08-21T01:48:55;4.97;;;1.88;;
31966;SDS011;18496;52.042;6.812;2023-08-21T01:51:02;3.88;;;2.10;;
31966;SDS011;18496;52.042;6.812;2023-08-21T01:53:06;5.05;;;2.15;;
31966;SDS011;18496;52.042;6.812;2023-08-21T01:55:10;3.92;;;1.90;;
31966;SDS011;18496;52.042;6.812;2023-08-21T01:57:15;6.82;;;2.30;;
31966;SDS011;18496;52.042;6.812;2023-08-21T01:59:19;9.40;;;2.40;;
31966;SDS011;18496;52.042;6.812;2023-08-21T02:01:23;4.90;;;2.13;;
31966;SDS011;18496;52.042;6.812;2023-08-21T02:03:27;4.20;;;2.05;;
31966;SDS011;18496;52.042;6.812;2023-08-21T02:05:36;5.53;;;1.92;;
31966;SDS011;18496;52.042;6.812;2023-08-21T02:07:41;4.28;;;2.05;;
31966;SDS011;18496;52.042;6.812;2023-08-21T02:09:45;7.00;;;1.85;;
31966;SDS011;18496;52.042;6.812;2023-08-21T02:11:49;4.93;;;1.98;;
31966;SDS011;18496;52.042;6.812;2023-08-21T02:13:53;8.00;;;2.25;;
31966;SDS011;18496;52.042;6.812;2023-08-21T02:15:56;4.43;;;2.10;;
31966;SDS011;18496;52.042;6.812;2023-08-21T02:18:00;5.97;;;2.33;;
31966;SDS011;18496;52.042;6.812;2023-08-21T02:20:04;5.70;;;2.50;;
31966;SDS011;18496;52.042;6.812;2023-08-21T02:22:08;5.80;;;2.30;;
31966;SDS011;18496;52.042;6.812;2023-08-21T02:24:12;5.47;;;2.28;;
31966;SDS011;18496;52.042;6.812;2023-08-21T02:26:16;7.53;;;2.42;;
31966;SDS011;18496;52.042;6.812;2023-08-21T02:28:20;6.30;;;2.13;;
31966;SDS011;18496;52.042;6.812;2023-08-21T02:30:25;7.97;;;2.42;;
31966;SDS011;18496;52.042;6.812;2023-08-21T02:32:30;10.82;;;2.60;;
31966;SDS011;18496;52.042;6.812;2023-08-21T02:34:34;5.68;;;2.88;;
31966;SDS011;18496;52.042;6.812;2023-08-21T02:36:38;7.78;;;2.40;;
31966;SDS011;18496;52.042;6.812;2023-08-21T02:38:41;3.65;;;2.00;;
31966;SDS011;18496;52.042;6.812;2023-08-21T02:40:45;5.68;;;2.13;;
31966;SDS011;18496;52.042;6.812;2023-08-21T02:42:50;9.80;;;2.60;;
31966;SDS011;18496;52.042;6.812;2023-08-21T02:44:54;6.68;;;2.20;;
31966;SDS011;18496;52.042;6.812;2023-08-21T02:46:58;5.75;;;2.35;;
31966;SDS011;18496;52.042;6.812;2023-08-21T02:49:02;5.32;;;2.25;;
31966;SDS011;18496;52.042;6.812;2023-08-21T02:51:06;3.45;;;2.33;;
31966;SDS011;18496;52.042;6.812;2023-08-21T02:53:09;7.45;;;2.53;;
31966;SDS011;18496;52.042;6.812;2023-08-21T02:55:13;3.90;;;2.53;;
31966;SDS011;18496;52.042;6.812;2023-08-21T02:57:18;5.97;;;2.47;;
31966;SDS011;18496;52.042;6.812;2023-08-21T02:59:22;13.63;;;2.78;;
31966;SDS011;18496;52.042;6.812;2023-08-21T03:01:26;6.53;;;2.88;;
31966;SDS011;18496;52.042;6.812;2023-08-21T03:03:30;4.90;;;2.33;;
31966;SDS011;18496;52.042;6.812;2023-08-21T03:05:35;5.78;;;2.20;;
31966;SDS011;18496;52.042;6.812;2023-08-21T03:07:39;4.80;;;2.22;;
31966;SDS011;18496;52.042;6.812;2023-08-21T03:09:44;8.93;;;2.80;;
31966;SDS011;18496;52.042;6.812;2023-08-21T03:11:50;5.82;;;2.70;;
31966;SDS011;18496;52.042;6.812;2023-08-21T03:13:54;3.28;;;2.15;;
31966;SDS011;18496;52.042;6.812;2023-08-21T03:15:58;9.15;;;2.70;;
31966;SDS011;18496;52.042;6.812;2023-08-21T03:18:03;6.03;;;2.38;;
31966;SDS011;18496;52.042;6.812;2023-08-21T03:20:07;4.57;;;2.38;;
31966;SDS011;18496;52.042;6.812;2023-08-21T03:22:12;6.80;;;2.20;;
31966;SDS011;18496;52.042;6.812;2023-08-21T03:24:17;7.05;;;2.30;;
31966;SDS011;18496;52.042;6.812;2023-08-21T03:26:21;6.70;;;2.97;;
31966;SDS011;18496;52.042;6.812;2023-08-21T03:28:26;11.07;;;3.08;;
31966;SDS011;18496;52.042;6.812;2023-08-21T03:30:30;8.10;;;2.80;;
31966;SDS011;18496;52.042;6.812;2023-08-21T03:32:33;5.93;;;2.53;;
31966;SDS011;18496;52.042;6.812;2023-08-21T03:34:38;8.75;;;2.72;;
31966;SDS011;18496;52.042;6.812;2023-08-21T03:36:42;6.75;;;2.70;;
31966;SDS011;18496;52.042;6.812;2023-08-21T03:38:46;6.63;;;2.60;;
31966;SDS011;18496;52.042;6.812;2023-08-21T03:40:50;7.97;;;2.03;;
31966;SDS011;18496;52.042;6.812;2023-08-21T03:42:54;6.30;;;2.60;;
31966;SDS011;18496;52.042;6.812;2023-08-21T03:44:58;10.48;;;3.33;;
31966;SDS011;18496;52.042;6.812;2023-08-21T03:47:02;5.03;;;1.90;;
31966;SDS011;18496;52.042;6.812;2023-08-21T03:49:10;4.07;;;2.28;;
31966;SDS011;18496;52.042;6.812;2023-08-21T03:51:14;5.20;;;2.08;;
31966;SDS011;18496;52.042;6.812;2023-08-21T03:53:18;7.10;;;2.72;;
31966;SDS011;18496;52.042;6.812;2023-08-21T03:55:22;7.35;;;2.50;;
31966;SDS011;18496;52.042;6.812;2023-08-21T03:57:25;5.47;;;2.33;;
31966;SDS011;18496;52.042;6.812;2023-08-21T03:59:29;3.47;;;1.98;;
31966;SDS011;18496;52.042;6.812;2023-08-21T04:01:33;5.72;;;2.17;;
31966;SDS011;18496;52.042;6.812;2023-08-21T04:03:37;5.05;;;2.28;;
31966;SDS011;18496;52.042;6.812;2023-08-21T04:05:41;6.88;;;2.28;;
31966;SDS011;18496;52.042;6.812;2023-08-21T04:07:45;6.95;;;2.08;;
31966;SDS011;18496;52.042;6.812;2023-08-21T04:09:48;7.57;;;2.28;;
31966;SDS011;18496;52.042;6.812;2023-08-21T04:11:52;4.55;;;2.00;;
31966;SDS011;18496;52.042;6.812;2023-08-21T04:13:56;11.35;;;2.63;;
31966;SDS011;18496;52.042;6.812;2023-08-21T04:16:04;4.00;;;2.30;;
31966;SDS011;18496;52.042;6.812;2023-08-21T04:18:08;6.90;;;2.53;;
31966;SDS011;18496;52.042;6.812;2023-08-21T04:20:12;8.18;;;3.13;;
31966;SDS011;18496;52.042;6.812;2023-08-21T04:22:16;7.20;;;2.78;;
31966;SDS011;18496;52.042;6.812;2023-08-21T04:24:20;7.55;;;2.33;;
31966;SDS011;18496;52.042;6.812;2023-08-21T04:26:24;8.55;;;2.38;;
31966;SDS011;18496;52.042;6.812;2023-08-21T04:28:29;5.22;;;2.67;;
31966;SDS011;18496;52.042;6.812;2023-08-21T04:30:39;6.25;;;2.42;;
31966;SDS011;18496;52.042;6.812;2023-08-21T04:32:45;7.90;;;2.63;;
31966;SDS011;18496;52.042;6.812;2023-08-21T04:34:49;5.43;;;2.55;;
31966;SDS011;18496;52.042;6.812;2023-08-21T04:36:53;8.57;;;2.60;;
31966;SDS011;18496;52.042;6.812;2023-08-21T04:38:57;9.38;;;3.25;;
31966;SDS011;18496;52.042;6.812;2023-08-21T04:41:08;3.53;;;2.03;;
31966;SDS011;18496;52.042;6.812;2023-08-21T04:43:14;6.07;;;2.75;;
31966;SDS011;18496;52.042;6.812;2023-08-21T04:45:19;9.50;;;2.67;;
31966;SDS011;18496;52.042;6.812;2023-08-21T04:47:24;9.95;;;2.40;;
31966;SDS011;18496;52.042;6.812;2023-08-21T04:49:34;10.30;;;3.60;;
31966;SDS011;18496;52.042;6.812;2023-08-21T04:51:38;9.27;;;3.03;;
31966;SDS011;18496;52.042;6.812;2023-08-21T04:53:43;5.35;;;2.38;;
31966;SDS011;18496;52.042;6.812;2023-08-21T04:55:51;11.15;;;3.50;;
31966;SDS011;18496;52.042;6.812;2023-08-21T04:57:55;8.80;;;2.28;;
31966;SDS011;18496;52.042;6.812;2023-08-21T05:00:00;6.88;;;2.30;;
31966;SDS011;18496;52.042;6.812;2023-08-21T05:02:11;6.88;;;2.78;;
31966;SDS011;18496;52.042;6.812;2023-08-21T05:04:16;6.30;;;3.10;;
31966;SDS011;18496;52.042;6.812;2023-08-21T05:06:20;6.72;;;2.90;;
31966;SDS011;18496;52.042;6.812;2023-08-21T05:08:25;11.00;;;2.83;;
31966;SDS011;18496;52.042;6.812;2023-08-21T05:10:29;4.88;;;2.95;;
31966;SDS011;18496;52.042;6.812;2023-08-21T05:12:33;4.53;;;2.55;;
31966;SDS011;18496;52.042;6.812;2023-08-21T05:14:38;8.20;;;2.80;;
31966;SDS011;18496;52.042;6.812;2023-08-21T05:16:42;10.30;;;3.42;;
31966;SDS011;18496;52.042;6.812;2023-08-21T05:18:45;9.60;;;5.00;;
31966;SDS011;18496;52.042;6.812;2023-08-21T05:20:49;8.93;;;4.38;;
31966;SDS011;18496;52.042;6.812;2023-08-21T05:22:54;9.40;;;2.58;;
31966;SDS011;18496;52.042;6.812;2023-08-21T05:24:58;5.57;;;2.70;;
31966;SDS011;18496;52.042;6.812;2023-08-21T05:27:02;7.97;;;3.63;;
31966;SDS011;18496;52.042;6.812;2023-08-21T05:29:07;7.18;;;3.30;;
31966;SDS011;18496;52.042;6.812;2023-08-21T05:31:11;9.23;;;3.42;;
31966;SDS011;18496;52.042;6.812;2023-08-21T05:33:25;4.20;;;2.28;;
31966;SDS011;18496;52.042;6.812;2023-08-21T05:35:33;7.22;;;3.03;;
31966;SDS011;18496;52.042;6.812;2023-08-21T05:37:39;7.70;;;3.15;;
31966;SDS011;18496;52.042;6.812;2023-08-21T05:39:43;12.35;;;2.85;;
31966;SDS011;18496;52.042;6.812;2023-08-21T05:41:47;11.63;;;3.05;;
31966;SDS011;18496;52.042;6.812;2023-08-21T05:43:51;5.00;;;2.83;;
31966;SDS011;18496;52.042;6.812;2023-08-21T05:45:56;10.95;;;6.07;;
31966;SDS011;18496;52.042;6.812;2023-08-21T05:47:59;14.90;;;3.92;;
31966;SDS011;18496;52.042;6.812;2023-08-21T05:50:03;16.02;;;4.70;;
31966;SDS011;18496;52.042;6.812;2023-08-21T05:52:08;24.45;;;4.40;;
31966;SDS011;18496;52.042;6.812;2023-08-21T05:54:12;12.23;;;3.03;;
31966;SDS011;18496;52.042;6.812;2023-08-21T05:56:18;7.80;;;3.33;;
31966;SDS011;18496;52.042;6.812;2023-08-21T05:58:22;9.80;;;2.75;;
31966;SDS011;18496;52.042;6.812;2023-08-21T06:00:26;12.50;;;3.03;;
31966;SDS011;18496;52.042;6.812;2023-08-21T06:02:30;5.05;;;2.88;;
31966;SDS011;18496;52.042;6.812;2023-08-21T06:04:36;8.30;;;3.30;;
31966;SDS011;18496;52.042;6.812;2023-08-21T06:06:42;4.95;;;2.58;;
31966;SDS011;18496;52.042;6.812;2023-08-21T06:08:46;27.85;;;6.97;;
31966;SDS011;18496;52.042;6.812;2023-08-21T06:10:51;38.30;;;10.57;;
31966;SDS011;18496;52.042;6.812;2023-08-21T06:12:55;18.02;;;5.15;;
31966;SDS011;18496;52.042;6.812;2023-08-21T06:14:59;38.40;;;12.38;;
31966;SDS011;18496;52.042;6.812;2023-08-21T06:17:03;22.13;;;8.68;;
31966;SDS011;18496;52.042;6.812;2023-08-21T06:19:08;23.90;;;8.38;;
31966;SDS011;18496;52.042;6.812;2023-08-21T06:21:12;15.00;;;5.90;;
31966;SDS011;18496;52.042;6.812;2023-08-21T06:23:16;13.70;;;3.92;;
31966;SDS011;18496;52.042;6.812;2023-08-21T06:25:20;10.55;;;3.28;;
31966;SDS011;18496;52.042;6.812;2023-08-21T06:27:24;7.13;;;3.47;;
31966;SDS011;18496;52.042;6.812;2023-08-21T06:29:28;12.50;;;4.53;;
31966;SDS011;18496;52.042;6.812;2023-08-21T06:31:32;14.77;;;3.72;;
31966;SDS011;18496;52.042;6.812;2023-08-21T06:33:35;7.45;;;3.50;;
31966;SDS011;18496;52.042;6.812;2023-08-21T06:35:39;10.45;;;3.58;;
31966;SDS011;18496;52.042;6.812;2023-08-21T06:37:43;11.70;;;3.40;;
31966;SDS011;18496;52.042;6.812;2023-08-21T06:39:47;14.05;;;3.67;;
31966;SDS011;18496;52.042;6.812;2023-08-21T06:41:51;10.25;;;3.25;;
31966;SDS011;18496;52.042;6.812;2023-08-21T06:43:57;6.68;;;3.75;;
31966;SDS011;18496;52.042;6.812;2023-08-21T06:46:01;9.07;;;4.22;;
31966;SDS011;18496;52.042;6.812;2023-08-21T06:48:05;13.45;;;4.07;;
31966;SDS011;18496;52.042;6.812;2023-08-21T06:50:09;8.20;;;3.45;;
31966;SDS011;18496;52.042;6.812;2023-08-21T06:52:13;10.10;;;3.92;;
31966;SDS011;18496;52.042;6.812;2023-08-21T06:54:17;10.30;;;3.03;;
31966;SDS011;18496;52.042;6.812;2023-08-21T06:56:21;7.78;;;2.70;;
31966;SDS011;18496;52.042;6.812;2023-08-21T06:58:25;11.00;;;3.13;;
31966;SDS011;18496;52.042;6.812;2023-08-21T07:00:28;15.88;;;5.75;;
31966;SDS011;18496;52.042;6.812;2023-08-21T07:02:32;9.15;;;3.88;;
31966;SDS011;18496;52.042;6.812;2023-08-21T07:04:36;8.98;;;3.22;;
31966;SDS011;18496;52.042;6.812;2023-08-21T07:06:40;11.10;;;3.35;;
31966;SDS011;18496;52.042;6.812;2023-08-21T07:08:43;6.70;;;2.30;;
31966;SDS011;18496;52.042;6.812;2023-08-21T07:10:47;11.27;;;2.58;;
31966;SDS011;18496;52.042;6.812;2023-08-21T07:12:53;8.60;;;2.95;;
31966;SDS011;18496;52.042;6.812;2023-08-21T07:14:57;11.75;;;4.15;;
31966;SDS011;18496;52.042;6.812;2023-08-21T07:17:00;13.00;;;2.95;;
31966;SDS011;18496;52.042;6.812;2023-08-21T07:19:04;19.05;;;4.75;;
31966;SDS011;18496;52.042;6.812;2023-08-21T07:21:08;15.38;;;3.13;;
31966;SDS011;18496;52.042;6.812;2023-08-21T07:23:12;12.77;;;3.20;;
31966;SDS011;18496;52.042;6.812;2023-08-21T07:25:16;11.63;;;2.83;;
31966;SDS011;18496;52.042;6.812;2023-08-21T07:27:20;8.35;;;2.45;;
31966;SDS011;18496;52.042;6.812;2023-08-21T07:29:24;5.95;;;2.35;;
31966;SDS011;18496;52.042;6.812;2023-08-21T07:31:28;9.60;;;3.17;;
31966;SDS011;18496;52.042;6.812;2023-08-21T07:33:32;10.18;;;2.35;;
31966;SDS011;18496;52.042;6.812;2023-08-21T07:35:35;6.97;;;2.60;;
31966;SDS011;18496;52.042;6.812;2023-08-21T07:37:41;9.02;;;2.85;;
31966;SDS011;18496;52.042;6.812;2023-08-21T07:39:47;10.73;;;2.63;;
31966;SDS011;18496;52.042;6.812;2023-08-21T07:41:51;17.02;;;4.40;;
31966;SDS011;18496;52.042;6.812;2023-08-21T07:43:56;5.13;;;2.33;;
31966;SDS011;18496;52.042;6.812;2023-08-21T07:46:03;7.80;;;2.22;;
31966;SDS011;18496;52.042;6.812;2023-08-21T07:48:08;12.32;;;2.80;;
31966;SDS011;18496;52.042;6.812;2023-08-21T07:50:12;13.68;;;2.78;;
31966;SDS011;18496;52.042;6.812;2023-08-21T07:52:17;5.60;;;2.38;;
31966;SDS011;18496;52.042;6.812;2023-08-21T07:54:21;5.18;;;2.40;;
31966;SDS011;18496;52.042;6.812;2023-08-21T07:56:25;9.73;;;2.55;;
31966;SDS011;18496;52.042;6.812;2023-08-21T07:58:29;12.07;;;3.25;;
31966;SDS011;18496;52.042;6.812;2023-08-21T08:00:33;9.10;;;2.17;;
31966;SDS011;18496;52.042;6.812;2023-08-21T08:02:37;7.68;;;2.30;;
31966;SDS011;18496;52.042;6.812;2023-08-21T08:04:43;4.32;;;2.00;;
31966;SDS011;18496;52.042;6.812;2023-08-21T08:06:47;15.13;;;2.40;;
31966;SDS011;18496;52.042;6.812;2023-08-21T08:08:51;8.80;;;2.28;;
31966;SDS011;18496;52.042;6.812;2023-08-21T08:10:55;8.57;;;2.25;;
31966;SDS011;18496;52.042;6.812;2023-08-21T08:12:58;5.80;;;1.95;;
31966;SDS011;18496;52.042;6.812;2023-08-21T08:15:02;9.77;;;2.20;;
31966;SDS011;18496;52.042;6.812;2023-08-21T08:17:06;7.78;;;2.08;;
31966;SDS011;18496;52.042;6.812;2023-08-21T08:19:10;9.35;;;2.05;;
31966;SDS011;18496;52.042;6.812;2023-08-21T08:21:14;10.77;;;2.03;;
31966;SDS011;18496;52.042;6.812;2023-08-21T08:23:19;10.10;;;2.05;;
31966;SDS011;18496;52.042;6.812;2023-08-21T08:25:23;12.38;;;2.20;;
31966;SDS011;18496;52.042;6.812;2023-08-21T08:27:27;6.50;;;2.65;;
31966;SDS011;18496;52.042;6.812;2023-08-21T08:29:31;9.25;;;2.13;;
31966;SDS011;18496;52.042;6.812;2023-08-21T08:31:35;10.35;;;2.03;;
31966;SDS011;18496;52.042;6.812;2023-08-21T08:33:38;10.82;;;2.63;;
31966;SDS011;18496;52.042;6.812;2023-08-21T08:35:42;3.70;;;1.85;;
31966;SDS011;18496;52.042;6.812;2023-08-21T08:37:46;3.63;;;1.30;;
31966;SDS011;18496;52.042;6.812;2023-08-21T08:39:50;7.95;;;1.92;;
31966;SDS011;18496;52.042;6.812;2023-08-21T08:41:56;6.72;;;2.05;;
31966;SDS011;18496;52.042;6.812;2023-08-21T08:44:06;9.70;;;2.17;;
31966;SDS011;18496;52.042;6.812;2023-08-21T08:46:10;6.10;;;2.20;;
31966;SDS011;18496;52.042;6.812;2023-08-21T08:48:14;6.70;;;2.55;;
31966;SDS011;18496;52.042;6.812;2023-08-21T08:50:19;8.32;;;2.35;;
31966;SDS011;18496;52.042;6.812;2023-08-21T08:52:23;6.35;;;2.38;;
31966;SDS011;18496;52.042;6.812;2023-08-21T08:54:30;7.50;;;2.13;;
31966;SDS011;18496;52.042;6.812;2023-08-21T08:56:34;9.35;;;2.25;;
31966;SDS011;18496;52.042;6.812;2023-08-21T08:58:39;8.48;;;2.30;;
31966;SDS011;18496;52.042;6.812;2023-08-21T09:00:45;6.03;;;2.00;;
31966;SDS011;18496;52.042;6.812;2023-08-21T09:02:49;7.57;;;2.25;;
31966;SDS011;18496;52.042;6.812;2023-08-21T09:04:53;12.02;;;2.50;;
31966;SDS011;18496;52.042;6.812;2023-08-21T09:07:09;8.65;;;2.53;;
31966;SDS011;18496;52.042;6.812;2023-08-21T09:09:14;7.22;;;2.03;;
31966;SDS011;18496;52.042;6.812;2023-08-21T09:11:18;16.85;;;2.92;;
31966;SDS011;18496;52.042;6.812;2023-08-21T09:13:23;11.48;;;2.30;;
31966;SDS011;18496;52.042;6.812;2023-08-21T09:15:29;7.35;;;1.92;;
31966;SDS011;18496;52.042;6.812;2023-08-21T09:17:33;3.53;;;1.52;;
31966;SDS011;18496;52.042;6.812;2023-08-21T09:19:37;11.07;;;2.10;;
31966;SDS011;18496;52.042;6.812;2023-08-21T09:21:41;5.70;;;2.13;;
31966;SDS011;18496;52.042;6.812;2023-08-21T09:23:46;10.07;;;2.38;;
31966;SDS011;18496;52.042;6.812;2023-08-21T09:25:51;5.50;;;1.70;;
31966;SDS011;18496;52.042;6.812;2023-08-21T09:27:56;9.18;;;2.05;;
31966;SDS011;18496;52.042;6.812;2023-08-21T09:30:00;6.57;;;1.80;;
31966;SDS011;18496;52.042;6.812;2023-08-21T09:32:08;12.35;;;2.10;;
31966;SDS011;18496;52.042;6.812;2023-08-21T09:34:12;7.90;;;1.95;;
31966;SDS011;18496;52.042;6.812;2023-08-21T09:36:16;10.40;;;2.47;;
31966;SDS011;18496;52.042;6.812;2023-08-21T09:38:20;4.32;;;1.65;;
31966;SDS011;18496;52.042;6.812;2023-08-21T09:40:24;4.32;;;1.40;;
31966;SDS011;18496;52.042;6.812;2023-08-21T09:42:28;2.97;;;1.23;;
31966;SDS011;18496;52.042;6.812;2023-08-21T09:44:37;5.35;;;1.48;;
31966;SDS011;18496;52.042;6.812;2023-08-21T09:46:42;8.23;;;1.77;;
31966;SDS011;18496;52.042;6.812;2023-08-21T09:48:46;6.50;;;1.70;;
31966;SDS011;18496;52.042;6.812;2023-08-21T09:50:51;5.50;;;1.50;;
31966;SDS011;18496;52.042;6.812;2023-08-21T09:52:56;3.83;;;1.30;;
31966;SDS011;18496;52.042;6.812;2023-08-21T09:55:00;9.00;;;2.00;;
31966;SDS011;18496;52.042;6.812;2023-08-21T09:57:07;9.98;;;2.08;;
31966;SDS011;18496;52.042;6.812;2023-08-21T09:59:11;4.28;;;1.30;;
31966;SDS011;18496;52.042;6.812;2023-08-21T10:01:16;8.48;;;1.55;;
31966;SDS011;18496;52.042;6.812;2023-08-21T10:03:23;5.63;;;1.60;;
31966;SDS011;18496;52.042;6.812;2023-08-21T10:05:28;5.07;;;1.40;;
31966;SDS011;18496;52.042;6.812;2023-08-21T10:07:33;8.07;;;1.60;;
31966;SDS011;18496;52.042;6.812;2023-08-21T10:09:37;6.43;;;1.42;;
31966;SDS011;18496;52.042;6.812;2023-08-21T10:11:46;5.10;;;1.83;;
31966;SDS011;18496;52.042;6.812;2023-08-21T10:13:51;5.93;;;1.50;;
31966;SDS011;18496;52.042;6.812;2023-08-21T10:15:55;4.95;;;1.48;;
31966;SDS011;18496;52.042;6.812;2023-08-21T10:18:17;5.63;;;1.88;;
31966;SDS011;18496;52.042;6.812;2023-08-21T10:20:22;6.70;;;2.30;;
31966;SDS011;18496;52.042;6.812;2023-08-21T10:22:38;4.30;;;1.30;;
31966;SDS011;18496;52.042;6.812;2023-08-21T10:24:42;6.60;;;1.33;;
31966;SDS011;18496;52.042;6.812;2023-08-21T10:26:45;5.28;;;1.70;;
31966;SDS011;18496;52.042;6.812;2023-08-21T10:28:58;8.40;;;1.92;;
31966;SDS011;18496;52.042;6.812;2023-08-21T10:33:47;5.88;;;1.83;;
31966;SDS011;18496;52.042;6.812;2023-08-21T10:35:51;4.80;;;1.65;;
31966;SDS011;18496;52.042;6.812;2023-08-21T10:38:08;7.55;;;1.58;;
31966;SDS011;18496;52.042;6.812;2023-08-21T10:40:21;12.27;;;2.17;;
31966;SDS011;18496;52.042;6.812;2023-08-21T10:42:36;5.32;;;1.98;;
31966;SDS011;18496;52.042;6.812;2023-08-21T10:46:52;6.03;;;1.20;;
31966;SDS011;18496;52.042;6.812;2023-08-21T10:48:56;4.60;;;1.52;;
31966;SDS011;18496;52.042;6.812;2023-08-21T10:51:04;6.60;;;1.75;;
31966;SDS011;18496;52.042;6.812;2023-08-21T10:53:10;6.33;;;1.53;;
31966;SDS011;18496;52.042;6.812;2023-08-21T10:55:16;6.32;;;1.50;;
31966;SDS011;18496;52.042;6.812;2023-08-21T10:57:22;3.47;;;1.30;;
31966;SDS011;18496;52.042;6.812;2023-08-21T10:59:26;6.85;;;1.63;;
31966;SDS011;18496;52.042;6.812;2023-08-21T11:01:42;4.65;;;1.85;;
31966;SDS011;18496;52.042;6.812;2023-08-21T11:03:49;9.07;;;1.63;;
31966;SDS011;18496;52.042;6.812;2023-08-21T11:06:00;5.80;;;1.60;;
31966;SDS011;18496;52.042;6.812;2023-08-21T11:08:07;5.65;;;1.40;;
31966;SDS011;18496;52.042;6.812;2023-08-21T11:10:12;5.00;;;1.85;;
31966;SDS011;18496;52.042;6.812;2023-08-21T11:12:27;4.80;;;1.77;;
31966;SDS011;18496;52.042;6.812;2023-08-21T11:14:31;8.63;;;1.63;;
31966;SDS011;18496;52.042;6.812;2023-08-21T11:16:35;5.75;;;1.80;;
31966;SDS011;18496;52.042;6.812;2023-08-21T11:18:39;7.32;;;1.90;;
31966;SDS011;18496;52.042;6.812;2023-08-21T11:20:42;6.55;;;1.52;;
31966;SDS011;18496;52.042;6.812;2023-08-21T11:22:46;6.18;;;1.45;;
31966;SDS011;18496;52.042;6.812;2023-08-21T11:24:50;7.50;;;1.75;;
31966;SDS011;18496;52.042;6.812;2023-08-21T11:26:54;3.17;;;1.10;;
31966;SDS011;18496;52.042;6.812;2023-08-21T11:28:58;5.68;;;1.80;;
31966;SDS011;18496;52.042;6.812;2023-08-21T11:31:05;6.50;;;1.65;;
31966;SDS011;18496;52.042;6.812;2023-08-21T11:33:10;6.32;;;1.88;;
31966;SDS011;18496;52.042;6.812;2023-08-21T11:35:15;6.63;;;1.70;;
31966;SDS011;18496;52.042;6.812;2023-08-21T11:37:24;4.78;;;1.50;;
31966;SDS011;18496;52.042;6.812;2023-08-21T11:39:51;4.72;;;1.45;;
31966;SDS011;18496;52.042;6.812;2023-08-21T11:42:21;5.50;;;1.42;;
31966;SDS011;18496;52.042;6.812;2023-08-21T11:45:43;5.85;;;1.50;;
31966;SDS011;18496;52.042;6.812;2023-08-21T11:48:56;9.90;;;2.45;;
31966;SDS011;18496;52.042;6.812;2023-08-21T11:51:01;9.40;;;1.80;;
31966;SDS011;18496;52.042;6.812;2023-08-21T11:53:05;4.13;;;1.45;;
31966;SDS011;18496;52.042;6.812;2023-08-21T11:55:09;4.68;;;1.65;;
31966;SDS011;18496;52.042;6.812;2023-08-21T11:57:16;2.28;;;1.23;;
31966;SDS011;18496;52.042;6.812;2023-08-21T11:59:23;5.43;;;1.48;;
31966;SDS011;18496;52.042;6.812;2023-08-21T12:01:27;7.10;;;1.75;;
31966;SDS011;18496;52.042;6.812;2023-08-21T12:03:37;11.60;;;2.22;;
31966;SDS011;18496;52.042;6.812;2023-08-21T12:05:44;4.72;;;1.67;;
31966;SDS011;18496;52.042;6.812;2023-08-21T12:07:48;9.75;;;1.88;;
31966;SDS011;18496;52.042;6.812;2023-08-21T12:09:52;6.22;;;1.75;;
31966;SDS011;18496;52.042;6.812;2023-08-21T12:11:56;4.88;;;1.48;;
31966;SDS011;18496;52.042;6.812;2023-08-21T12:14:00;3.35;;;1.42;;
31966;SDS011;18496;52.042;6.812;2023-08-21T12:16:04;6.18;;;1.80;;
31966;SDS011;18496;52.042;6.812;2023-08-21T12:18:08;11.82;;;2.08;;
31966;SDS011;18496;52.042;6.812;2023-08-21T12:20:12;5.15;;;1.70;;
31966;SDS011;18496;52.042;6.812;2023-08-21T12:22:16;6.22;;;1.23;;
31966;SDS011;18496;52.042;6.812;2023-08-21T12:24:20;4.93;;;1.85;;
31966;SDS011;18496;52.042;6.812;2023-08-21T12:26:23;5.03;;;1.45;;
31966;SDS011;18496;52.042;6.812;2023-08-21T12:28:27;5.80;;;1.70;;
31966;SDS011;18496;52.042;6.812;2023-08-21T12:30:31;3.80;;;1.35;;
31966;SDS011;18496;52.042;6.812;2023-08-21T12:32:35;2.55;;;1.20;;
31966;SDS011;18496;52.042;6.812;2023-08-21T12:34:39;7.95;;;1.55;;
31966;SDS011;18496;52.042;6.812;2023-08-21T12:36:43;4.30;;;1.63;;
31966;SDS011;18496;52.042;6.812;2023-08-21T12:38:47;4.88;;;1.30;;
31966;SDS011;18496;52.042;6.812;2023-08-21T12:40:50;7.55;;;1.50;;
31966;SDS011;18496;52.042;6.812;2023-08-21T12:42:54;5.53;;;1.60;;
31966;SDS011;18496;52.042;6.812;2023-08-21T12:44:58;4.88;;;1.40;;